Time;durP1;ratioP1;P1;durP2;ratioP2;P2;SDS_P1;SDS_P2;PMS_P1;PMS_P2;Temp;Humidity;BMP_temperature;BMP_pressure;BME280_temperature;BME280_humidity;BME280_pressure;Samples;Min_cycle;Max_cycle;Signal;HPM_P1;HPM_P2
2023/02/15 00:00:08;;;;;;;12.38;5.00;;;;;;;8.70;65.82;101231.09;5048355;28;20045;-48
2023/02/15 00:02:34;;;;;;;15.63;4.50;;;;;;;8.68;66.06;101227.84;5042055;28;20052;-45
2023/02/15 00:05:01;;;;;;;12.77;4.80;;;;;;;8.64;66.20;101233.19;5048108;28;20131;-50
2023/02/15 00:07:28;;;;;;;14.00;6.13;;;;;;;8.62;66.34;101229.94;5047690;28;20372;-44
2023/02/15 00:09:55;;;;;;;16.05;5.90;;;;;;;8.59;66.56;101230.59;5047811;28;20229;-45
2023/02/15 00:12:21;;;;;;;15.55;5.97;;;;;;;8.56;66.78;101226.50;5028228;28;20585;-45
2023/02/15 00:14:48;;;;;;;14.32;5.40;;;;;;;8.54;66.97;101230.72;5039056;28;20043;-44
2023/02/15 00:17:15;;;;;;;12.75;5.45;;;;;;;8.51;67.29;101225.84;5043878;28;20083;-44
2023/02/15 00:19:42;;;;;;;14.05;6.55;;;;;;;8.49;67.36;101215.13;5048065;28;20140;-45
2023/02/15 00:22:09;;;;;;;11.48;5.10;;;;;;;8.48;67.65;101207.97;5047986;28;20091;-46
2023/02/15 00:24:35;;;;;;;11.55;4.68;;;;;;;8.46;67.80;101203.91;5047641;28;20777;-49
2023/02/15 00:27:02;;;;;;;15.73;5.05;;;;;;;8.47;68.00;101205.56;5047923;28;20045;-50
2023/02/15 00:29:29;;;;;;;13.80;5.38;;;;;;;8.42;67.98;101195.47;5047668;28;20426;-45
2023/02/15 00:31:56;;;;;;;13.02;5.75;;;;;;;8.41;68.34;101201.31;5048043;28;20112;-48
2023/02/15 00:34:26;;;;;;;18.15;5.75;;;;;;;8.39;68.43;101196.09;5048327;28;20045;-46
2023/02/15 00:36:53;;;;;;;12.13;4.90;;;;;;;8.39;68.64;101193.34;5046586;28;20499;-50
2023/02/15 00:39:21;;;;;;;13.27;5.72;;;;;;;8.37;68.52;101184.56;5040803;28;20099;-46
2023/02/15 00:41:48;;;;;;;12.75;5.03;;;;;;;8.35;68.73;101175.81;5040925;28;20033;-44
2023/02/15 00:44:15;;;;;;;13.40;6.28;;;;;;;8.33;68.86;101171.75;5045380;28;20451;-45
2023/02/15 00:46:42;;;;;;;13.45;7.13;;;;;;;8.30;68.99;101166.88;5037316;28;20072;-50
2023/02/15 00:49:09;;;;;;;21.17;6.28;;;;;;;8.27;69.15;101167.50;5039572;28;20475;-45
2023/02/15 00:51:36;;;;;;;15.80;6.65;;;;;;;8.24;69.43;101157.06;5043590;28;20075;-44
2023/02/15 00:54:03;;;;;;;17.65;7.20;;;;;;;8.24;69.59;101157.06;5049791;28;20080;-45
2023/02/15 00:56:30;;;;;;;17.08;6.95;;;;;;;8.24;69.68;101151.56;5050945;28;20136;-50
2023/02/15 00:58:57;;;;;;;13.13;6.75;;;;;;;8.21;69.98;101153.00;5028662;28;20049;-46
2023/02/15 01:01:25;;;;;;;12.90;6.55;;;;;;;8.22;69.98;101149.13;5047676;28;20053;-49
2023/02/15 01:03:53;;;;;;;15.70;6.60;;;;;;;8.21;70.20;101141.16;5053108;28;20522;-44
2023/02/15 01:06:20;;;;;;;18.75;7.53;;;;;;;8.19;70.21;101126.88;5067683;28;20140;-44
2023/02/15 01:08:47;;;;;;;13.15;6.80;;;;;;;8.20;70.45;101131.28;5066319;28;20118;-45
2023/02/15 01:11:21;;;;;;;13.48;6.88;;;;;;;8.20;70.49;101128.50;5061319;28;20358;-44
2023/02/15 01:13:55;;;;;;;18.38;7.18;;;;;;;8.17;70.67;101123.63;5058786;28;20142;-45
2023/02/15 01:16:24;;;;;;;13.20;6.97;;;;;;;8.16;70.89;101119.25;5052197;28;20052;-47
2023/02/15 01:18:51;;;;;;;22.08;7.63;;;;;;;8.15;71.15;101114.88;5065068;28;20449;-45
2023/02/15 01:21:21;;;;;;;21.67;7.72;;;;;;;8.13;71.31;101111.63;5067690;28;20032;-49
2023/02/15 01:23:48;;;;;;;17.55;6.78;;;;;;;8.10;71.80;101107.53;5066984;28;20049;-47
2023/02/15 01:26:16;;;;;;;15.35;7.78;;;;;;;8.10;71.98;101106.75;5065665;28;20052;-45
2023/02/15 01:28:43;;;;;;;22.75;7.88;;;;;;;8.08;71.98;101092.44;5056700;28;20435;-46
2023/02/15 01:31:14;;;;;;;15.07;6.97;;;;;;;8.07;72.23;101083.38;5067898;28;20437;-48
2023/02/15 01:33:41;;;;;;;22.60;7.72;;;;;;;8.08;72.45;101078.66;5067743;28;20110;-49
2023/02/15 01:36:08;;;;;;;30.52;9.20;;;;;;;8.08;72.66;101081.41;5058476;28;20040;-45
2023/02/15 01:38:35;;;;;;;25.08;10.60;;;;;;;8.08;72.79;101081.41;5061878;28;20444;-44
2023/02/15 01:44:02;;;;;;;21.33;7.78;;;;;;;8.07;72.99;101064.09;5074650;28;20078;-45
2023/02/15 01:46:42;;;;;;;19.27;7.75;;;;;;;8.08;73.38;101062.94;5057280;28;20052;-48
2023/02/15 01:49:19;;;;;;;18.80;7.78;;;;;;;8.08;73.27;101059.34;5062473;28;20111;-45
2023/02/15 01:51:49;;;;;;;18.52;7.47;;;;;;;8.09;73.52;101049.97;5059197;28;20780;-45
2023/02/15 01:54:29;;;;;;;21.58;9.07;;;;;;;8.08;73.92;101034.53;5053528;28;20051;-45
2023/02/15 01:57:02;;;;;;;19.73;9.60;;;;;;;8.09;74.14;101027.91;5059746;28;20122;-44
2023/02/15 01:59:31;;;;;;;30.58;10.10;;;;;;;8.07;74.36;101016.38;5045022;28;20192;-48
2023/02/15 02:02:00;;;;;;;21.10;9.95;;;;;;;8.08;74.61;101012.47;5065972;28;20113;-51
2023/02/15 02:04:47;;;;;;;20.45;9.55;;;;;;;8.05;74.72;101007.63;5063960;28;20052;-45
2023/02/15 02:07:16;;;;;;;22.42;10.55;;;;;;;8.03;74.96;101007.94;5061792;28;20048;-44
2023/02/15 02:09:45;;;;;;;18.60;9.68;;;;;;;8.04;75.18;101008.75;5063116;28;20033;-46
2023/02/15 02:12:14;;;;;;;22.77;9.77;;;;;;;8.02;75.50;101002.75;5077325;28;20051;-52
2023/02/15 02:14:42;;;;;;;23.35;9.30;;;;;;;7.99;75.53;100993.97;5066719;28;20485;-47
2023/02/15 02:17:33;;;;;;;25.05;9.88;;;;;;;7.98;75.93;100984.09;5065804;28;20094;-48
2023/02/15 02:20:17;;;;;;;19.13;9.85;;;;;;;7.98;76.21;100989.63;5066748;28;20486;-51
2023/02/15 02:22:51;;;;;;;18.65;8.63;;;;;;;7.98;76.29;100984.09;5063462;28;21685;-44
2023/02/15 02:25:51;;;;;;;24.35;10.65;;;;;;;7.98;76.56;100972.25;5061571;28;20080;-50
2023/02/15 02:29:03;;;;;;;21.98;11.05;;;;;;;7.98;76.79;100962.03;5048214;28;20056;-46
2023/02/15 02:31:45;;;;;;;24.17;9.43;;;;;;;8.01;76.78;100965.28;5060702;28;20052;-46
2023/02/15 02:34:37;;;;;;;21.88;9.00;;;;;;;7.99;76.92;100952.63;5063345;28;20044;-44
2023/02/15 02:37:23;;;;;;;18.13;9.27;;;;;;;8.01;76.97;100948.75;5056789;28;20056;-51
2023/02/15 02:40:10;;;;;;;20.10;9.55;;;;;;;8.01;77.03;100937.72;5065968;28;20127;-44
2023/02/15 02:42:42;;;;;;;18.90;9.95;;;;;;;8.02;77.26;100939.34;5056086;28;20048;-44
2023/02/15 02:45:40;;;;;;;22.27;9.00;;;;;;;8.03;77.27;100932.69;5066228;28;20143;-44
2023/02/15 02:48:22;;;;;;;20.20;9.20;;;;;;;8.04;77.52;100932.38;5064398;28;20422;-44
2023/02/15 02:50:49;;;;;;;18.40;9.25;;;;;;;8.05;77.40;100939.50;5062524;28;20462;-46
2023/02/15 02:53:18;;;;;;;14.75;8.70;;;;;;;8.07;77.59;100941.94;5063237;28;20110;-45
2023/02/15 02:55:56;;;;;;;25.80;10.75;;;;;;;8.07;77.59;100934.50;5068698;28;20076;-46
2023/02/15 02:58:27;;;;;;;21.38;10.93;;;;;;;8.07;77.77;100936.44;5066897;28;20589;-45
2023/02/15 03:00:57;;;;;;;20.10;10.43;;;;;;;8.08;77.94;100921.50;5103191;22;20243;-45
2023/02/15 03:03:27;;;;;;;20.48;11.23;;;;;;;8.07;78.01;100919.88;5065330;28;20049;-45
2023/02/15 03:05:59;;;;;;;24.45;11.35;;;;;;;8.06;78.21;100907.22;5068256;28;20055;-45
2023/02/15 03:08:35;;;;;;;26.55;10.93;;;;;;;8.06;78.34;100896.19;5067355;28;20078;-45
2023/02/15 03:11:04;;;;;;;19.85;10.98;;;;;;;8.05;78.28;100900.88;5063178;28;20131;-44
2023/02/15 03:13:31;;;;;;;23.35;12.30;;;;;;;8.05;78.57;100900.09;5067097;28;20046;-47
2023/02/15 03:18:57;;;;;;;22.58;10.77;;;;;;;8.03;78.72;100872.03;5064544;28;20076;-45
2023/02/15 03:21:42;;;;;;;31.27;12.25;;;;;;;8.00;78.82;100865.22;5063634;28;20513;-45
2023/02/15 03:24:22;;;;;;;27.05;11.18;;;;;;;8.02;79.14;100862.16;5064883;28;20462;-45
2023/02/15 03:26:51;;;;;;;28.20;11.60;;;;;;;8.01;79.21;100855.00;5066663;28;20505;-44
2023/02/15 03:29:22;;;;;;;21.95;10.63;;;;;;;8.01;79.21;100846.72;5059115;28;20048;-45
2023/02/15 03:31:53;;;;;;;26.70;11.73;;;;;;;8.03;79.42;100839.75;5056472;28;20076;-45
2023/02/15 03:34:20;;;;;;;22.13;11.95;;;;;;;8.04;79.54;100826.78;5059349;28;20055;-44
2023/02/15 03:36:53;;;;;;;29.90;12.07;;;;;;;8.05;79.59;100829.19;5065944;28;20056;-44
2023/02/15 03:39:40;;;;;;;23.58;11.93;;;;;;;8.07;79.63;100806.84;5065360;28;20040;-45
2023/02/15 03:42:13;;;;;;;25.88;10.60;;;;;;;8.09;79.96;100807.31;5066207;28;20137;-44
2023/02/15 03:45:03;;;;;;;20.50;12.48;;;;;;;8.12;80.12;100801.97;5065691;28;20098;-44
2023/02/15 03:47:35;;;;;;;26.27;10.75;;;;;;;8.13;80.02;100800.81;5066749;28;20055;-46
2023/02/15 03:51:33;;;;;;;25.47;11.03;;;;;;;8.15;80.26;100808.78;5057899;28;20059;-46
2023/02/15 03:52:55;;;;;;;26.90;13.45;;;;;;;8.18;80.24;100791.56;5066072;28;20072;-45
2023/02/15 03:55:22;;;;;;;23.85;9.68;;;;;;;8.21;80.47;100782.63;5061197;28;20114;-45
2023/02/15 04:03:51;;;;;;;20.27;10.07;;;;;;;8.40;80.41;100810.66;5062941;28;20552;-45
2023/02/15 04:06:18;;;;;;;23.58;8.38;;;;;;;8.46;80.42;100801.09;5064325;28;20072;-48
2023/02/15 04:11:33;;;;;;;24.27;8.75;;;;;;;8.58;80.27;100823.28;5063418;28;20059;-45
2023/02/15 04:16:02;;;;;;;29.50;9.50;;;;;;;8.62;80.24;100821.47;5067404;28;20154;-45
2023/02/15 04:16:47;;;;;;;19.42;7.93;;;;;;;8.69;80.21;100823.72;5065887;28;20041;-45
2023/02/15 04:27:30;;;;;;;23.88;8.95;;;;;;;8.79;80.31;100799.31;5069522;28;20490;-46
2023/02/15 04:29:57;;;;;;;26.92;9.23;;;;;;;8.83;80.22;100796.72;5063702;28;20454;-49
2023/02/15 04:32:24;;;;;;;18.90;8.65;;;;;;;8.86;80.31;100798.81;5063844;28;20041;-46
2023/02/15 04:34:52;;;;;;;19.45;8.48;;;;;;;8.88;80.22;100796.53;5069184;28;20049;-45
2023/02/15 04:37:19;;;;;;;28.33;10.10;;;;;;;8.90;80.37;100800.56;5066674;28;20059;-50
2023/02/15 04:39:45;;;;;;;21.35;10.40;;;;;;;8.91;80.45;100796.69;5067175;28;20052;-46
2023/02/15 04:42:12;;;;;;;17.40;7.90;;;;;;;8.94;80.38;100807.06;5063648;28;20154;-45
2023/02/15 04:44:39;;;;;;;24.85;8.65;;;;;;;8.97;80.39;100800.88;5069481;28;20161;-45
2023/02/15 04:47:06;;;;;;;18.02;7.47;;;;;;;8.98;80.47;100787.84;5068332;28;20102;-48
2023/02/15 04:49:32;;;;;;;21.63;7.85;;;;;;;8.99;80.62;100776.50;5069083;28;20187;-48
2023/02/15 04:51:59;;;;;;;18.02;8.40;;;;;;;9.04;80.52;100787.34;5056375;28;20040;-45
2023/02/15 04:54:26;;;;;;;18.48;7.35;;;;;;;9.06;80.61;100775.94;5071596;28;20043;-45
2023/02/15 04:56:53;;;;;;;22.42;8.52;;;;;;;9.08;80.47;100768.94;5069447;28;20117;-45
2023/02/15 04:59:19;;;;;;;15.45;6.43;;;;;;;9.09;80.58;100784.38;5063653;28;20066;-45
2023/02/15 05:01:46;;;;;;;18.65;7.95;;;;;;;9.11;80.62;100767.47;5077666;28;20129;-45
2023/02/15 05:04:15;;;;;;;19.73;6.70;;;;;;;9.11;80.75;100762.75;5089696;28;20060;-45
2023/02/15 05:06:41;;;;;;;18.08;6.68;;;;;;;9.12;80.78;100761.63;5089339;28;20044;-45
2023/02/15 05:09:08;;;;;;;16.35;7.40;;;;;;;9.13;81.04;100759.69;5091306;28;20040;-45
2023/02/15 05:11:35;;;;;;;21.15;7.65;;;;;;;9.15;81.01;100749.91;5071854;28;20051;-46
2023/02/15 05:14:02;;;;;;;18.27;8.10;;;;;;;9.15;81.24;100788.59;5085605;28;20074;-45
2023/02/15 05:16:29;;;;;;;11.23;5.85;;;;;;;9.13;81.22;100876.47;5089054;28;20097;-46
2023/02/15 05:18:56;;;;;;;11.85;3.75;;;;;;;9.05;81.43;100891.13;5089015;28;20074;-47
2023/02/15 05:21:23;;;;;;;9.73;2.60;;;;;;;8.81;81.71;100885.41;5022335;28;20060;-49
2023/02/15 05:23:50;;;;;;;4.70;2.83;;;;;;;8.53;82.12;100898.78;5088904;28;20044;-48
2023/02/15 05:29:16;;;;;;;2.63;1.95;;;;;;;8.09;83.18;100895.53;5011986;28;20050;-44
2023/02/15 05:31:46;;;;;;;5.03;1.85;;;;;;;7.95;83.68;100907.53;5087637;28;20063;-45
2023/02/15 05:34:14;;;;;;;2.28;1.60;;;;;;;7.86;84.22;100909.47;5087922;28;20044;-49
2023/02/15 05:36:40;;;;;;;2.15;0.93;;;;;;;7.77;84.19;100918.88;5086236;28;20075;-48
2023/02/15 05:39:08;;;;;;;2.22;0.93;;;;;;;7.69;84.61;100909.47;5086215;28;20082;-44
2023/02/15 05:41:34;;;;;;;3.30;0.60;;;;;;;7.61;84.64;100918.53;5087929;28;20087;-45
2023/02/15 05:44:01;;;;;;;1.00;0.80;;;;;;;7.56;84.73;100915.94;5085819;28;20122;-48
2023/02/15 05:46:28;;;;;;;3.45;0.85;;;;;;;7.53;84.89;100911.06;5067469;28;20074;-44
2023/02/15 05:48:55;;;;;;;1.42;0.55;;;;;;;7.46;85.18;100909.91;5087612;28;20055;-44
2023/02/15 05:51:23;;;;;;;1.88;0.40;;;;;;;7.39;85.20;100907.59;5084302;28;20048;-44
2023/02/15 05:53:49;;;;;;;2.00;0.40;;;;;;;7.34;85.45;100911.34;5090212;28;20067;-44
2023/02/15 05:56:16;;;;;;;1.05;0.45;;;;;;;7.30;85.46;100906.78;5087277;28;20542;-45
2023/02/15 05:58:43;;;;;;;3.05;0.43;;;;;;;7.26;85.61;100911.28;5090273;28;20050;-44
2023/02/15 06:01:15;;;;;;;2.35;0.50;;;;;;;7.27;85.74;100918.44;5067053;28;20058;-46
2023/02/15 06:03:41;;;;;;;0.85;0.40;;;;;;;7.27;85.71;100923.94;5063539;28;20059;-45
2023/02/15 06:06:09;;;;;;;0.45;0.40;;;;;;;7.24;85.91;100941.09;5061205;28;20076;-46
2023/02/15 06:08:37;;;;;;;0.40;0.40;;;;;;;7.21;86.07;100941.72;5062121;28;20406;-45
2023/02/15 06:11:05;;;;;;;0.82;0.30;;;;;;;7.18;85.98;100939.59;5061273;28;20044;-46
2023/02/15 06:13:33;;;;;;;2.35;0.30;;;;;;;7.18;86.39;100937.69;5061029;28;20053;-44
2023/02/15 06:16:03;;;;;;;0.40;0.25;;;;;;;7.20;86.37;100948.38;5068022;28;20453;-44
2023/02/15 06:18:31;;;;;;;0.60;0.22;;;;;;;7.20;86.36;100964.91;5065867;28;20055;-46
2023/02/15 06:21:02;;;;;;;0.60;0.60;;;;;;;7.18;86.49;100950.63;5066407;28;20061;-46
2023/02/15 06:23:28;;;;;;;1.10;0.28;;;;;;;7.14;86.72;100947.72;5059703;28;20072;-46
2023/02/15 06:25:55;;;;;;;0.32;0.10;;;;;;;7.12;86.88;100951.91;5065343;28;20573;-44
2023/02/15 06:28:22;;;;;;;0.13;0.13;;;;;;;7.08;86.85;100951.72;5063071;28;20083;-44
2023/02/15 06:30:49;;;;;;;0.52;0.30;;;;;;;7.06;87.01;100953.16;5059385;28;20051;-49
2023/02/15 06:33:16;;;;;;;5.03;0.35;;;;;;;7.02;87.15;100949.41;5064663;28;20086;-44
2023/02/15 06:35:43;;;;;;;0.55;0.15;;;;;;;6.99;87.20;100939.84;5057576;28;20135;-47
2023/02/15 06:38:09;;;;;;;0.20;0.20;;;;;;;6.97;87.44;100947.63;5064344;28;20049;-44
2023/02/15 06:40:36;;;;;;;0.28;0.20;;;;;;;6.93;87.59;100967.84;5068435;28;20044;-44
2023/02/15 06:43:03;;;;;;;0.35;0.20;;;;;;;6.92;88.01;100966.19;5059247;28;20569;-44
2023/02/15 06:45:31;;;;;;;0.47;0.20;;;;;;;6.87;88.06;100958.09;5057357;28;20037;-44
2023/02/15 06:47:58;;;;;;;0.68;0.20;;;;;;;6.86;87.89;100950.97;5063456;28;20094;-46
2023/02/15 06:50:25;;;;;;;0.98;0.32;;;;;;;6.85;88.05;100957.59;5068903;28;20083;-44
2023/02/15 06:52:58;;;;;;;1.02;0.50;;;;;;;6.84;88.36;100965.03;5061662;28;20080;-44
2023/02/15 06:55:25;;;;;;;0.40;0.20;;;;;;;6.82;88.17;100960.97;5064696;28;20123;-45
2023/02/15 06:57:53;;;;;;;1.25;0.35;;;;;;;6.80;88.43;100969.56;5069426;28;20048;-45
2023/02/15 07:00:21;;;;;;;1.70;0.30;;;;;;;6.77;88.38;100972.94;5069113;28;20508;-45
2023/02/15 07:02:56;;;;;;;1.55;0.38;;;;;;;6.77;88.72;100970.19;5087655;28;20052;-49
2023/02/15 07:05:23;;;;;;;0.38;0.28;;;;;;;6.74;88.72;100977.13;5084368;28;20044;-46
2023/02/15 07:07:50;;;;;;;1.30;0.30;;;;;;;6.72;88.96;100970.31;5071128;28;20039;-54
2023/02/15 07:10:17;;;;;;;1.17;0.32;;;;;;;6.67;88.96;100971.22;5090690;28;20047;-46
2023/02/15 07:12:47;;;;;;;0.35;0.20;;;;;;;6.63;89.23;100963.94;5095158;28;20054;-50
2023/02/15 07:15:16;;;;;;;1.13;0.30;;;;;;;6.60;89.15;100962.63;5088557;28;20138;-44
2023/02/15 07:17:43;;;;;;;0.17;0.17;;;;;;;6.58;89.40;100951.13;5089463;28;20911;-46
2023/02/15 07:20:14;;;;;;;0.63;0.20;;;;;;;6.57;89.39;100960.47;5058163;28;20131;-44
2023/02/15 07:22:42;;;;;;;0.85;0.20;;;;;;;6.56;89.67;100963.56;5089405;28;20042;-44
2023/02/15 07:25:10;;;;;;;0.55;0.30;;;;;;;6.55;89.60;100957.25;5085440;28;20040;-44
2023/02/15 07:27:37;;;;;;;0.22;0.22;;;;;;;6.53;89.82;100954.00;5086039;28;20043;-44
2023/02/15 07:30:08;;;;;;;1.48;0.25;;;;;;;6.51;89.56;100952.69;5077178;28;20079;-45
2023/02/15 07:32:35;;;;;;;0.22;0.20;;;;;;;6.48;89.91;100945.06;5080050;28;20040;-47
2023/02/15 07:35:02;;;;;;;0.57;0.20;;;;;;;6.46;89.80;100945.34;5078709;28;20047;-45
2023/02/15 07:37:29;;;;;;;1.02;0.32;;;;;;;6.45;90.08;100941.00;5086131;28;20040;-46
2023/02/15 07:39:55;;;;;;;0.30;0.30;;;;;;;6.46;90.05;100922.56;5086252;28;20142;-45
2023/02/15 07:42:22;;;;;;;0.40;0.30;;;;;;;6.48;89.97;100915.63;5066660;28;20069;-45
2023/02/15 07:44:49;;;;;;;1.67;0.68;;;;;;;6.51;90.20;100925.19;5079629;28;20040;-45
2023/02/15 07:47:16;;;;;;;0.32;0.32;;;;;;;6.54;90.18;100927.31;5084672;28;20101;-45
2023/02/15 07:49:46;;;;;;;1.35;0.40;;;;;;;6.53;90.35;100911.94;5060359;28;20048;-44
2023/02/15 07:52:13;;;;;;;0.30;0.30;;;;;;;6.53;90.36;100910.00;5085076;28;20074;-45
2023/02/15 07:54:40;;;;;;;2.95;0.57;;;;;;;6.52;90.18;100907.53;5076556;28;20051;-48
2023/02/15 07:57:06;;;;;;;0.60;0.30;;;;;;;6.52;90.27;100911.09;5086056;28;20457;-45
2023/02/15 07:59:33;;;;;;;1.80;0.35;;;;;;;6.51;90.60;100909.47;5088433;28;20044;-44
2023/02/15 08:02:00;;;;;;;0.65;0.40;;;;;;;6.51;90.53;100905.94;5088912;28;20514;-44
2023/02/15 08:04:27;;;;;;;1.48;0.60;;;;;;;6.51;90.66;100909.47;5092850;28;20052;-45
2023/02/15 08:06:54;;;;;;;2.08;0.40;;;;;;;6.49;90.59;100914.47;5092672;28;20067;-45
2023/02/15 08:09:22;;;;;;;0.38;0.38;;;;;;;6.50;90.75;100924.38;5089964;28;20040;-45
2023/02/15 08:11:49;;;;;;;1.08;0.40;;;;;;;6.52;90.58;100929.53;5095730;28;20056;-45
2023/02/15 08:14:18;;;;;;;0.30;0.30;;;;;;;6.51;90.56;100925.97;5092970;28;20052;-51
2023/02/15 08:16:54;;;;;;;0.85;0.60;;;;;;;6.51;90.63;100923.22;5092406;28;20401;-46
2023/02/15 08:19:35;;;;;;;1.70;0.80;;;;;;;6.52;90.67;100924.84;5079910;28;20048;-45
2023/02/15 08:22:06;;;;;;;0.80;0.33;;;;;;;6.53;90.75;100917.44;5076513;28;20156;-46
2023/02/15 08:24:38;;;;;;;0.88;0.50;;;;;;;6.53;90.82;100942.19;5091511;28;20039;-46
2023/02/15 08:27:10;;;;;;;1.08;0.60;;;;;;;6.52;90.93;100935.84;5074889;28;20052;-46
2023/02/15 08:29:38;;;;;;;0.60;0.45;;;;;;;6.54;90.92;100939.09;5082337;28;20040;-45
2023/02/15 08:32:11;;;;;;;3.33;1.33;;;;;;;6.55;91.06;100942.66;5092014;28;20055;-48
2023/02/15 08:34:41;;;;;;;3.65;0.60;;;;;;;6.56;91.16;100947.88;5095552;28;20401;-49
2023/02/15 08:37:09;;;;;;;6.10;1.63;;;;;;;6.56;91.19;100947.88;5091639;28;20393;-46
2023/02/15 08:39:36;;;;;;;0.30;0.30;;;;;;;6.58;91.33;100948.38;5092204;28;20455;-45
2023/02/15 08:42:03;;;;;;;2.33;0.70;;;;;;;6.60;91.21;100959.88;5092239;28;20048;-46
2023/02/15 08:44:30;;;;;;;0.55;0.30;;;;;;;6.63;91.26;100947.41;5091767;28;20392;-45
2023/02/15 08:47:02;;;;;;;3.40;0.60;;;;;;;6.66;91.38;100964.13;5091416;28;20048;-44
2023/02/15 08:49:30;;;;;;;2.38;0.70;;;;;;;6.70;91.19;100961.53;5079998;28;20121;-44
2023/02/15 08:51:57;;;;;;;1.80;0.60;;;;;;;6.73;91.32;100958.97;5091388;28;20044;-46
2023/02/15 08:54:24;;;;;;;0.60;0.40;;;;;;;6.75;91.35;100962.22;5091566;28;20047;-46
2023/02/15 08:56:51;;;;;;;3.13;0.65;;;;;;;6.78;91.46;100958.03;5090853;28;20071;-45
2023/02/15 08:59:20;;;;;;;1.73;0.70;;;;;;;6.82;91.46;100969.22;5091225;28;20477;-45
2023/02/15 09:01:49;;;;;;;4.00;0.68;;;;;;;6.86;91.53;100967.47;5091231;28;20581;-46
2023/02/15 09:04:17;;;;;;;2.63;0.93;;;;;;;6.91;91.25;100981.09;5091410;28;20044;-44
2023/02/15 09:06:47;;;;;;;1.55;1.10;;;;;;;6.94;91.35;100981.28;5091207;28;20055;-45
2023/02/15 09:09:16;;;;;;;2.65;0.75;;;;;;;6.94;91.44;100977.69;5091542;28;20059;-47
2023/02/15 09:11:45;;;;;;;3.17;1.27;;;;;;;6.93;91.54;100984.34;5095774;28;20040;-46
2023/02/15 09:14:15;;;;;;;2.92;0.88;;;;;;;6.95;91.51;100979.34;5089699;28;20050;-45
2023/02/15 09:16:46;;;;;;;1.65;0.68;;;;;;;6.95;91.38;100982.09;5091046;28;20040;-43
2023/02/15 09:19:13;;;;;;;4.38;0.70;;;;;;;6.96;91.35;100986.47;5091192;28;20047;-46
2023/02/15 09:21:40;;;;;;;1.67;0.90;;;;;;;6.92;91.16;100988.22;5091449;28;20394;-45
2023/02/15 09:24:11;;;;;;;2.10;1.08;;;;;;;6.88;91.19;100992.75;5091345;28;20443;-44
2023/02/15 09:26:41;;;;;;;2.83;1.00;;;;;;;6.84;91.23;100981.53;5089791;28;20043;-44
2023/02/15 09:29:09;;;;;;;0.85;0.40;;;;;;;6.83;91.02;100984.63;5091309;28;20416;-47
2023/02/15 09:31:44;;;;;;;0.25;0.25;;;;;;;6.81;91.07;100989.59;5077430;28;20126;-46
2023/02/15 09:34:13;;;;;;;1.52;0.30;;;;;;;6.81;91.00;100981.34;5099138;28;20051;-48
2023/02/15 09:36:40;;;;;;;0.70;0.30;;;;;;;6.85;91.07;100987.88;5072676;28;20454;-44
2023/02/15 09:39:10;;;;;;;0.60;0.60;;;;;;;6.88;91.16;101003.75;5090860;28;20048;-44
2023/02/15 09:41:37;;;;;;;1.23;0.40;;;;;;;6.91;91.00;100987.41;5090237;28;20048;-46
2023/02/15 09:44:28;;;;;;;1.38;0.90;;;;;;;6.93;91.00;100995.38;5090553;28;20048;-45
2023/02/15 09:47:10;;;;;;;2.25;0.57;;;;;;;6.96;90.72;100994.75;5090555;28;20444;-46
2023/02/15 09:49:57;;;;;;;1.15;0.40;;;;;;;6.98;90.65;100992.47;5079062;28;20131;-45
2023/02/15 09:52:42;;;;;;;4.13;0.40;;;;;;;7.02;90.58;100990.69;5089893;28;20043;-46
2023/02/15 09:55:11;;;;;;;2.40;0.40;;;;;;;7.06;90.66;100999.97;5090584;28;20089;-45
2023/02/15 09:58:09;;;;;;;1.13;0.85;;;;;;;7.08;90.55;101001.28;5087825;28;20139;-45
2023/02/15 10:00:44;;;;;;;1.10;0.28;;;;;;;7.14;90.43;101010.22;5090129;28;20177;-44
2023/02/15 10:03:49;;;;;;;0.47;0.32;;;;;;;7.20;90.35;101006.22;5069080;28;20131;-51
2023/02/15 10:06:24;;;;;;;1.23;0.60;;;;;;;7.28;90.32;101014.50;5070249;28;20049;-45
2023/02/15 10:09:22;;;;;;;2.13;0.20;;;;;;;7.38;90.07;101005.16;5056891;28;20106;-46
2023/02/15 10:11:51;;;;;;;3.42;0.30;;;;;;;7.46;89.87;101006.31;5078661;28;20139;-45
2023/02/15 10:14:37;;;;;;;1.08;0.60;;;;;;;7.54;89.93;101016.56;5068678;28;20185;-46
2023/02/15 10:17:07;;;;;;;1.48;0.20;;;;;;;7.58;89.69;101018.34;5057686;28;20059;-45
2023/02/15 10:19:33;;;;;;;1.52;0.30;;;;;;;7.61;89.45;101012.22;5069653;28;20086;-46
2023/02/15 10:22:13;;;;;;;2.28;0.28;;;;;;;7.63;89.58;101020.16;5070101;28;20135;-45
2023/02/15 10:24:45;;;;;;;0.73;0.25;;;;;;;7.68;89.37;101020.81;5069048;28;20047;-47
2023/02/15 10:27:20;;;;;;;1.00;0.30;;;;;;;7.74;89.35;101030.56;5069672;28;20749;-47
2023/02/15 10:30:00;;;;;;;1.30;0.40;;;;;;;7.82;89.31;101017.94;5067351;28;20057;-46
2023/02/15 10:32:34;;;;;;;1.02;0.30;;;;;;;7.93;89.23;101019.28;5069604;28;20123;-44
2023/02/15 10:35:20;;;;;;;2.55;1.52;;;;;;;8.10;89.24;101019.28;5077849;28;20048;-48
2023/02/15 10:38:08;;;;;;;2.28;0.40;;;;;;;8.27;88.83;101024.06;5069275;28;20524;-46
2023/02/15 10:41:10;;;;;;;1.00;0.30;;;;;;;8.46;88.44;101016.28;5067740;28;20469;-46
2023/02/15 10:43:52;;;;;;;1.83;0.40;;;;;;;8.58;88.17;101021.97;5067969;28;20105;-46
2023/02/15 10:46:49;;;;;;;4.43;0.40;;;;;;;8.72;87.72;101021.78;5055960;28;20644;-45
2023/02/15 10:49:43;;;;;;;2.20;0.30;;;;;;;8.79;87.59;101011.88;5063390;28;20486;-48
2023/02/15 10:52:36;;;;;;;2.65;0.63;;;;;;;8.85;87.19;101010.59;5068622;28;20544;-45
2023/02/15 10:55:24;;;;;;;;;;;;;;;8.88;87.07;101001.66;5069431;28;20055;-46
2023/02/15 10:58:11;;;;;;;4.28;1.42;;;;;;;8.90;86.95;101007.66;5058146;28;19990;-46
2023/02/15 11:01:08;;;;;;;2.15;0.90;;;;;;;8.95;86.92;101004.72;5069629;28;20509;-48
2023/02/15 11:03:46;;;;;;;6.10;1.77;;;;;;;8.97;86.72;101021.78;5081076;27;20047;-46
2023/02/15 11:06:20;;;;;;;2.08;0.63;;;;;;;8.99;86.78;101022.25;5109258;28;20061;-52
2023/02/15 11:08:51;;;;;;;4.90;0.88;;;;;;;9.00;86.65;101026.63;5091345;28;20531;-45
2023/02/15 11:11:24;;;;;;;;;;;;;;;8.97;86.43;101027.31;5113550;27;20412;-45
2023/02/15 11:13:58;;;;;;;5.07;0.70;;;;;;;8.95;86.46;101021.28;5108220;28;20357;-48
2023/02/15 11:16:36;;;;;;;5.47;1.00;;;;;;;8.97;86.44;101018.22;5109033;28;20048;-45
2023/02/15 11:19:14;;;;;;;4.93;1.25;;;;;;;8.98;86.40;101023.38;5109397;28;20050;-46
2023/02/15 11:21:47;;;;;;;3.53;0.63;;;;;;;8.97;86.19;101032.84;5115917;27;20062;-48
2023/02/15 11:24:19;;;;;;;5.40;0.77;;;;;;;8.98;85.99;101039.97;5091215;28;20120;-44
2023/02/15 11:26:46;;;;;;;;;;;;;;;8.94;85.66;101027.13;5109454;28;20063;-44
2023/02/15 11:29:36;;;;;;;3.88;1.00;;;;;;;8.94;85.57;101027.97;5090365;28;19923;-46
2023/02/15 11:32:23;;;;;;;5.20;1.08;;;;;;;8.97;85.72;101032.84;5109616;28;20059;-47
2023/02/15 11:34:53;;;;;;;3.20;0.68;;;;;;;8.98;85.55;101028.09;5117627;27;20039;-45
2023/02/15 11:37:28;;;;;;;4.50;0.65;;;;;;;9.01;85.66;101033.78;5109210;28;20032;-45
2023/02/15 11:39:56;;;;;;;3.10;1.23;;;;;;;8.99;85.35;101033.31;5108095;28;20404;-45
2023/02/15 11:42:25;;;;;;;4.47;1.25;;;;;;;9.00;85.33;101043.19;5108400;28;20048;-46
2023/02/15 11:44:59;;;;;;;6.90;0.70;;;;;;;9.01;85.25;101041.25;5109089;28;20051;-45
2023/02/15 11:47:25;;;;;;;8.45;2.25;;;;;;;9.02;85.05;101052.00;5109063;28;20370;-45
2023/02/15 11:49:52;;;;;;;4.18;0.95;;;;;;;9.04;85.02;101046.94;5108741;28;20051;-45
2023/02/15 11:52:19;;;;;;;3.65;0.75;;;;;;;9.08;84.99;101050.66;5107892;28;20067;-45
2023/02/15 11:54:51;;;;;;;3.97;1.02;;;;;;;9.12;84.89;101057.16;5109328;28;20067;-45
2023/02/15 11:57:37;;;;;;;1.63;1.10;;;;;;;9.16;84.94;101063.66;5108553;28;20039;-45
2023/02/15 12:00:12;;;;;;;4.28;0.93;;;;;;;9.22;84.86;101055.19;5108996;28;20040;-49
2023/02/15 12:02:44;;;;;;;10.30;1.90;;;;;;;9.26;84.68;101056.16;5108831;28;20104;-47
2023/02/15 12:05:17;;;;;;;7.43;1.05;;;;;;;9.29;84.46;101049.97;5108280;28;20035;-49
2023/02/15 12:07:49;;;;;;;7.63;1.02;;;;;;;9.30;84.43;101052.41;5108980;28;20085;-48
2023/02/15 12:10:22;;;;;;;;;;;;;;;9.31;84.24;101056.81;5110420;28;20077;-49
2023/02/15 12:13:09;;;;;;;3.72;0.80;;;;;;;9.31;83.92;101053.22;5110284;28;20040;-46
2023/02/15 12:15:37;;;;;;;1.85;0.98;;;;;;;9.33;83.93;101059.22;5107965;28;20139;-50